sensor_id;sensor_type;location;lat;lon;timestamp;P1;durP1;ratioP1;P2;durP2;ratioP2
4397;SDS011;2213;49.720;7.296;2024-03-25T00:00:48;9.50;;;1.93;;
4397;SDS011;2213;49.720;7.296;2024-03-25T00:03:14;3.57;;;1.67;;
4397;SDS011;2213;49.720;7.296;2024-03-25T00:05:42;3.03;;;1.80;;
4397;SDS011;2213;49.720;7.296;2024-03-25T00:08:08;5.00;;;1.97;;
4397;SDS011;2213;49.720;7.296;2024-03-25T00:10:36;4.10;;;1.90;;
4397;SDS011;2213;49.720;7.296;2024-03-25T00:13:04;11.27;;;2.20;;
4397;SDS011;2213;49.720;7.296;2024-03-25T00:15:31;5.27;;;1.97;;
4397;SDS011;2213;49.720;7.296;2024-03-25T00:17:59;3.23;;;1.93;;
4397;SDS011;2213;49.720;7.296;2024-03-25T00:20:27;12.83;;;1.97;;
4397;SDS011;2213;49.720;7.296;2024-03-25T00:22:55;2.17;;;1.87;;
4397;SDS011;2213;49.720;7.296;2024-03-25T00:25:22;7.07;;;2.23;;
4397;SDS011;2213;49.720;7.296;2024-03-25T00:27:49;3.10;;;2.07;;
4397;SDS011;2213;49.720;7.296;2024-03-25T00:30:17;6.17;;;1.60;;
4397;SDS011;2213;49.720;7.296;2024-03-25T00:32:44;4.40;;;1.80;;
4397;SDS011;2213;49.720;7.296;2024-03-25T00:35:12;8.57;;;1.73;;
4397;SDS011;2213;49.720;7.296;2024-03-25T00:37:39;6.10;;;1.70;;
4397;SDS011;2213;49.720;7.296;2024-03-25T00:40:07;7.20;;;1.80;;
4397;SDS011;2213;49.720;7.296;2024-03-25T00:42:37;1.57;;;1.23;;
4397;SDS011;2213;49.720;7.296;2024-03-25T00:45:04;2.60;;;1.50;;
4397;SDS011;2213;49.720;7.296;2024-03-25T00:47:33;11.03;;;1.80;;
4397;SDS011;2213;49.720;7.296;2024-03-25T00:50:01;8.33;;;1.67;;
4397;SDS011;2213;49.720;7.296;2024-03-25T00:52:28;6.33;;;1.83;;
4397;SDS011;2213;49.720;7.296;2024-03-25T00:54:55;4.00;;;1.70;;
4397;SDS011;2213;49.720;7.296;2024-03-25T00:57:22;6.80;;;2.00;;
4397;SDS011;2213;49.720;7.296;2024-03-25T00:59:49;3.20;;;1.67;;
4397;SDS011;2213;49.720;7.296;2024-03-25T01:02:16;4.43;;;1.80;;
4397;SDS011;2213;49.720;7.296;2024-03-25T01:04:44;3.23;;;1.73;;
4397;SDS011;2213;49.720;7.296;2024-03-25T01:07:11;2.90;;;1.67;;
4397;SDS011;2213;49.720;7.296;2024-03-25T01:09:38;2.80;;;1.53;;
4397;SDS011;2213;49.720;7.296;2024-03-25T01:12:05;6.07;;;1.47;;
4397;SDS011;2213;49.720;7.296;2024-03-25T01:14:33;1.93;;;1.50;;
4397;SDS011;2213;49.720;7.296;2024-03-25T01:16:59;5.13;;;1.57;;
4397;SDS011;2213;49.720;7.296;2024-03-25T01:19:27;3.67;;;1.80;;
4397;SDS011;2213;49.720;7.296;2024-03-25T01:21:55;3.77;;;1.30;;
4397;SDS011;2213;49.720;7.296;2024-03-25T01:24:22;3.00;;;1.60;;
4397;SDS011;2213;49.720;7.296;2024-03-25T01:26:49;1.53;;;1.40;;
4397;SDS011;2213;49.720;7.296;2024-03-25T01:29:16;2.43;;;1.53;;
4397;SDS011;2213;49.720;7.296;2024-03-25T01:31:44;3.43;;;1.53;;
4397;SDS011;2213;49.720;7.296;2024-03-25T01:34:11;3.67;;;1.30;;
4397;SDS011;2213;49.720;7.296;2024-03-25T01:36:37;2.60;;;1.30;;
4397;SDS011;2213;49.720;7.296;2024-03-25T01:39:07;2.97;;;1.93;;
4397;SDS011;2213;49.720;7.296;2024-03-25T01:41:33;2.80;;;1.40;;
4397;SDS011;2213;49.720;7.296;2024-03-25T01:44:01;5.60;;;2.07;;
4397;SDS011;2213;49.720;7.296;2024-03-25T01:46:27;2.30;;;1.50;;
4397;SDS011;2213;49.720;7.296;2024-03-25T01:48:56;3.90;;;1.60;;
4397;SDS011;2213;49.720;7.296;2024-03-25T01:51:24;7.33;;;2.00;;
4397;SDS011;2213;49.720;7.296;2024-03-25T01:53:52;2.93;;;1.70;;
4397;SDS011;2213;49.720;7.296;2024-03-25T01:56:21;3.90;;;1.33;;
4397;SDS011;2213;49.720;7.296;2024-03-25T01:58:51;5.13;;;2.30;;
4397;SDS011;2213;49.720;7.296;2024-03-25T02:01:17;2.13;;;1.30;;
4397;SDS011;2213;49.720;7.296;2024-03-25T02:03:46;8.10;;;1.67;;
4397;SDS011;2213;49.720;7.296;2024-03-25T02:06:15;3.63;;;1.50;;
4397;SDS011;2213;49.720;7.296;2024-03-25T02:08:44;2.13;;;1.50;;
4397;SDS011;2213;49.720;7.296;2024-03-25T02:11:10;4.27;;;2.10;;
4397;SDS011;2213;49.720;7.296;2024-03-25T02:13:40;3.27;;;1.30;;
4397;SDS011;2213;49.720;7.296;2024-03-25T02:16:07;2.30;;;1.43;;
4397;SDS011;2213;49.720;7.296;2024-03-25T02:18:34;2.97;;;1.60;;
4397;SDS011;2213;49.720;7.296;2024-03-25T02:21:01;3.23;;;1.40;;
4397;SDS011;2213;49.720;7.296;2024-03-25T02:23:28;4.30;;;1.77;;
4397;SDS011;2213;49.720;7.296;2024-03-25T02:25:57;4.07;;;1.60;;
4397;SDS011;2213;49.720;7.296;2024-03-25T02:28:24;5.00;;;1.63;;
4397;SDS011;2213;49.720;7.296;2024-03-25T02:30:51;2.73;;;1.33;;
4397;SDS011;2213;49.720;7.296;2024-03-25T02:33:18;3.60;;;1.70;;
4397;SDS011;2213;49.720;7.296;2024-03-25T02:35:45;4.97;;;1.50;;
4397;SDS011;2213;49.720;7.296;2024-03-25T02:38:12;3.00;;;1.60;;
4397;SDS011;2213;49.720;7.296;2024-03-25T02:40:40;3.87;;;1.83;;
4397;SDS011;2213;49.720;7.296;2024-03-25T02:43:09;1.80;;;1.70;;
4397;SDS011;2213;49.720;7.296;2024-03-25T02:45:36;3.77;;;1.60;;
4397;SDS011;2213;49.720;7.296;2024-03-25T02:48:04;3.73;;;1.30;;
4397;SDS011;2213;49.720;7.296;2024-03-25T02:50:30;10.60;;;2.00;;
4397;SDS011;2213;49.720;7.296;2024-03-25T02:52:58;4.50;;;1.93;;
4397;SDS011;2213;49.720;7.296;2024-03-25T02:55:24;2.73;;;1.30;;
4397;SDS011;2213;49.720;7.296;2024-03-25T02:57:52;2.97;;;1.67;;
4397;SDS011;2213;49.720;7.296;2024-03-25T03:00:19;2.17;;;1.43;;
4397;SDS011;2213;49.720;7.296;2024-03-25T03:02:47;3.47;;;1.83;;
4397;SDS011;2213;49.720;7.296;2024-03-25T03:05:13;3.80;;;1.57;;
4397;SDS011;2213;49.720;7.296;2024-03-25T03:07:42;4.73;;;1.90;;
4397;SDS011;2213;49.720;7.296;2024-03-25T03:10:09;6.20;;;1.70;;
4397;SDS011;2213;49.720;7.296;2024-03-25T03:12:36;2.40;;;1.80;;
4397;SDS011;2213;49.720;7.296;2024-03-25T03:15:03;5.50;;;1.40;;
4397;SDS011;2213;49.720;7.296;2024-03-25T03:17:33;3.30;;;1.77;;
4397;SDS011;2213;49.720;7.296;2024-03-25T03:19:59;13.50;;;2.33;;
4397;SDS011;2213;49.720;7.296;2024-03-25T03:22:27;3.83;;;1.50;;
4397;SDS011;2213;49.720;7.296;2024-03-25T03:24:53;3.80;;;1.70;;
4397;SDS011;2213;49.720;7.296;2024-03-25T03:27:21;4.90;;;1.53;;
4397;SDS011;2213;49.720;7.296;2024-03-25T03:29:47;2.60;;;1.73;;
4397;SDS011;2213;49.720;7.296;2024-03-25T03:32:14;4.50;;;1.60;;
4397;SDS011;2213;49.720;7.296;2024-03-25T03:34:42;4.40;;;1.70;;
4397;SDS011;2213;49.720;7.296;2024-03-25T03:37:10;1.83;;;1.30;;
4397;SDS011;2213;49.720;7.296;2024-03-25T03:39:36;9.70;;;2.00;;
4397;SDS011;2213;49.720;7.296;2024-03-25T03:42:03;2.80;;;1.33;;
4397;SDS011;2213;49.720;7.296;2024-03-25T03:44:30;8.77;;;1.93;;
4397;SDS011;2213;49.720;7.296;2024-03-25T03:46:57;3.23;;;1.50;;
4397;SDS011;2213;49.720;7.296;2024-03-25T03:49:24;4.63;;;1.90;;
4397;SDS011;2213;49.720;7.296;2024-03-25T03:51:53;6.50;;;1.60;;
4397;SDS011;2213;49.720;7.296;2024-03-25T03:54:19;3.73;;;1.40;;
4397;SDS011;2213;49.720;7.296;2024-03-25T03:56:46;3.53;;;1.83;;
4397;SDS011;2213;49.720;7.296;2024-03-25T03:59:13;2.60;;;1.70;;
4397;SDS011;2213;49.720;7.296;2024-03-25T04:01:40;3.70;;;1.67;;
4397;SDS011;2213;49.720;7.296;2024-03-25T04:04:07;6.27;;;2.10;;
4397;SDS011;2213;49.720;7.296;2024-03-25T04:06:35;6.03;;;2.53;;
4397;SDS011;2213;49.720;7.296;2024-03-25T04:09:03;5.03;;;2.33;;
4397;SDS011;2213;49.720;7.296;2024-03-25T04:11:30;3.60;;;1.93;;
4397;SDS011;2213;49.720;7.296;2024-03-25T04:13:56;7.10;;;3.37;;
4397;SDS011;2213;49.720;7.296;2024-03-25T04:16:24;2.83;;;1.83;;
4397;SDS011;2213;49.720;7.296;2024-03-25T04:18:50;4.40;;;2.30;;
4397;SDS011;2213;49.720;7.296;2024-03-25T04:21:18;2.63;;;2.40;;
4397;SDS011;2213;49.720;7.296;2024-03-25T04:23:44;3.57;;;1.87;;
4397;SDS011;2213;49.720;7.296;2024-03-25T04:26:13;4.83;;;2.03;;
4397;SDS011;2213;49.720;7.296;2024-03-25T04:28:39;4.73;;;1.80;;
4397;SDS011;2213;49.720;7.296;2024-03-25T04:31:07;7.27;;;2.00;;
4397;SDS011;2213;49.720;7.296;2024-03-25T04:33:34;3.50;;;1.93;;
4397;SDS011;2213;49.720;7.296;2024-03-25T04:36:01;3.47;;;1.60;;
4397;SDS011;2213;49.720;7.296;2024-03-25T04:38:29;2.70;;;1.67;;
4397;SDS011;2213;49.720;7.296;2024-03-25T04:40:55;2.50;;;1.53;;
4397;SDS011;2213;49.720;7.296;2024-03-25T04:43:23;5.27;;;1.53;;
4397;SDS011;2213;49.720;7.296;2024-03-25T04:45:49;3.23;;;2.03;;
4397;SDS011;2213;49.720;7.296;2024-03-25T04:48:16;4.70;;;1.63;;
4397;SDS011;2213;49.720;7.296;2024-03-25T04:50:42;5.47;;;1.83;;
4397;SDS011;2213;49.720;7.296;2024-03-25T04:53:09;6.10;;;1.63;;
4397;SDS011;2213;49.720;7.296;2024-03-25T04:55:35;3.17;;;1.50;;
4397;SDS011;2213;49.720;7.296;2024-03-25T04:58:02;7.00;;;2.00;;
4397;SDS011;2213;49.720;7.296;2024-03-25T05:00:30;1.73;;;1.30;;
4397;SDS011;2213;49.720;7.296;2024-03-25T05:02:56;4.00;;;1.47;;
4397;SDS011;2213;49.720;7.296;2024-03-25T05:05:23;2.80;;;1.30;;
4397;SDS011;2213;49.720;7.296;2024-03-25T05:07:49;4.70;;;1.43;;
4397;SDS011;2213;49.720;7.296;2024-03-25T05:10:16;1.97;;;1.50;;
4397;SDS011;2213;49.720;7.296;2024-03-25T05:12:42;4.67;;;1.83;;
4397;SDS011;2213;49.720;7.296;2024-03-25T05:15:09;1.50;;;1.40;;
4397;SDS011;2213;49.720;7.296;2024-03-25T05:17:36;2.17;;;1.70;;
4397;SDS011;2213;49.720;7.296;2024-03-25T05:20:03;1.67;;;1.57;;
4397;SDS011;2213;49.720;7.296;2024-03-25T05:22:31;11.53;;;2.23;;
4397;SDS011;2213;49.720;7.296;2024-03-25T05:24:57;6.67;;;2.00;;
4397;SDS011;2213;49.720;7.296;2024-03-25T05:27:24;2.33;;;1.40;;
4397;SDS011;2213;49.720;7.296;2024-03-25T05:29:51;4.60;;;1.50;;
4397;SDS011;2213;49.720;7.296;2024-03-25T05:32:19;4.30;;;1.70;;
4397;SDS011;2213;49.720;7.296;2024-03-25T05:34:46;4.13;;;1.70;;
4397;SDS011;2213;49.720;7.296;2024-03-25T05:37:13;4.23;;;2.20;;
4397;SDS011;2213;49.720;7.296;2024-03-25T05:39:40;3.37;;;1.47;;
4397;SDS011;2213;49.720;7.296;2024-03-25T05:42:07;4.13;;;1.60;;
4397;SDS011;2213;49.720;7.296;2024-03-25T05:44:33;2.50;;;1.60;;
4397;SDS011;2213;49.720;7.296;2024-03-25T05:47:00;13.00;;;2.53;;
4397;SDS011;2213;49.720;7.296;2024-03-25T05:49:26;3.63;;;1.70;;
4397;SDS011;2213;49.720;7.296;2024-03-25T05:51:54;1.87;;;1.70;;
4397;SDS011;2213;49.720;7.296;2024-03-25T05:54:21;2.50;;;1.60;;
4397;SDS011;2213;49.720;7.296;2024-03-25T05:56:47;3.90;;;1.50;;
4397;SDS011;2213;49.720;7.296;2024-03-25T05:59:14;3.23;;;2.17;;
4397;SDS011;2213;49.720;7.296;2024-03-25T06:01:40;3.07;;;1.87;;
4397;SDS011;2213;49.720;7.296;2024-03-25T06:04:07;2.40;;;1.67;;
4397;SDS011;2213;49.720;7.296;2024-03-25T06:06:33;4.00;;;1.80;;
4397;SDS011;2213;49.720;7.296;2024-03-25T06:09:01;3.00;;;2.20;;
4397;SDS011;2213;49.720;7.296;2024-03-25T06:11:28;2.50;;;1.80;;
4397;SDS011;2213;49.720;7.296;2024-03-25T06:13:54;4.43;;;1.83;;
4397;SDS011;2213;49.720;7.296;2024-03-25T06:16:21;8.30;;;3.83;;
4397;SDS011;2213;49.720;7.296;2024-03-25T06:18:47;10.90;;;3.50;;
4397;SDS011;2213;49.720;7.296;2024-03-25T06:21:14;4.03;;;2.20;;
4397;SDS011;2213;49.720;7.296;2024-03-25T06:23:40;4.40;;;2.60;;
4397;SDS011;2213;49.720;7.296;2024-03-25T06:26:08;2.03;;;1.73;;
4397;SDS011;2213;49.720;7.296;2024-03-25T06:28:34;4.80;;;1.97;;
4397;SDS011;2213;49.720;7.296;2024-03-25T06:31:01;3.13;;;2.00;;
4397;SDS011;2213;49.720;7.296;2024-03-25T06:33:46;2.57;;;2.10;;
4397;SDS011;2213;49.720;7.296;2024-03-25T06:36:31;2.17;;;1.97;;
4397;SDS011;2213;49.720;7.296;2024-03-25T06:38:58;5.90;;;2.30;;
4397;SDS011;2213;49.720;7.296;2024-03-25T06:41:26;4.37;;;2.07;;
4397;SDS011;2213;49.720;7.296;2024-03-25T06:43:52;2.93;;;2.27;;
4397;SDS011;2213;49.720;7.296;2024-03-25T06:46:19;1.83;;;1.73;;
4397;SDS011;2213;49.720;7.296;2024-03-25T06:48:45;3.93;;;2.07;;
4397;SDS011;2213;49.720;7.296;2024-03-25T06:51:12;3.53;;;1.93;;
4397;SDS011;2213;49.720;7.296;2024-03-25T06:53:38;3.10;;;2.10;;
4397;SDS011;2213;49.720;7.296;2024-03-25T06:56:05;2.57;;;1.80;;
4397;SDS011;2213;49.720;7.296;2024-03-25T06:58:33;4.10;;;1.90;;
4397;SDS011;2213;49.720;7.296;2024-03-25T07:01:03;4.10;;;2.47;;
4397;SDS011;2213;49.720;7.296;2024-03-25T07:03:32;12.73;;;2.23;;
4397;SDS011;2213;49.720;7.296;2024-03-25T07:06:01;5.03;;;2.60;;
4397;SDS011;2213;49.720;7.296;2024-03-25T07:08:28;3.53;;;2.30;;
4397;SDS011;2213;49.720;7.296;2024-03-25T07:10:55;4.00;;;2.73;;
4397;SDS011;2213;49.720;7.296;2024-03-25T07:13:22;5.77;;;3.03;;
4397;SDS011;2213;49.720;7.296;2024-03-25T07:15:50;7.60;;;3.00;;
4397;SDS011;2213;49.720;7.296;2024-03-25T07:18:17;4.23;;;3.30;;
4397;SDS011;2213;49.720;7.296;2024-03-25T07:20:43;8.90;;;3.20;;
4397;SDS011;2213;49.720;7.296;2024-03-25T07:23:10;6.30;;;3.63;;
4397;SDS011;2213;49.720;7.296;2024-03-25T07:25:37;10.43;;;3.10;;
4397;SDS011;2213;49.720;7.296;2024-03-25T07:28:03;7.03;;;3.13;;
4397;SDS011;2213;49.720;7.296;2024-03-25T07:30:30;5.53;;;3.50;;
4397;SDS011;2213;49.720;7.296;2024-03-25T07:32:59;7.03;;;3.90;;
4397;SDS011;2213;49.720;7.296;2024-03-25T07:35:25;5.37;;;3.73;;
4397;SDS011;2213;49.720;7.296;2024-03-25T07:37:52;16.87;;;5.03;;
4397;SDS011;2213;49.720;7.296;2024-03-25T07:40:18;7.30;;;4.20;;
4397;SDS011;2213;49.720;7.296;2024-03-25T07:42:46;7.37;;;4.00;;
4397;SDS011;2213;49.720;7.296;2024-03-25T07:45:13;12.23;;;4.10;;
4397;SDS011;2213;49.720;7.296;2024-03-25T07:47:39;10.10;;;4.27;;
4397;SDS011;2213;49.720;7.296;2024-03-25T07:50:08;4.87;;;3.93;;
4397;SDS011;2213;49.720;7.296;2024-03-25T07:52:35;8.63;;;4.10;;
4397;SDS011;2213;49.720;7.296;2024-03-25T07:55:01;12.47;;;4.23;;
4397;SDS011;2213;49.720;7.296;2024-03-25T07:57:29;8.13;;;4.50;;
4397;SDS011;2213;49.720;7.296;2024-03-25T07:59:55;7.23;;;4.10;;
4397;SDS011;2213;49.720;7.296;2024-03-25T08:02:21;9.50;;;4.00;;
4397;SDS011;2213;49.720;7.296;2024-03-25T08:04:48;7.73;;;4.30;;
4397;SDS011;2213;49.720;7.296;2024-03-25T08:07:16;6.53;;;4.40;;
4397;SDS011;2213;49.720;7.296;2024-03-25T08:09:42;17.00;;;5.20;;
4397;SDS011;2213;49.720;7.296;2024-03-25T08:12:09;8.47;;;4.87;;
4397;SDS011;2213;49.720;7.296;2024-03-25T08:14:36;11.03;;;4.80;;
4397;SDS011;2213;49.720;7.296;2024-03-25T08:17:02;9.23;;;4.87;;
4397;SDS011;2213;49.720;7.296;2024-03-25T08:19:29;7.83;;;4.20;;
4397;SDS011;2213;49.720;7.296;2024-03-25T08:21:56;12.53;;;4.93;;
4397;SDS011;2213;49.720;7.296;2024-03-25T08:24:24;8.33;;;4.80;;
4397;SDS011;2213;49.720;7.296;2024-03-25T08:26:50;12.03;;;4.70;;
4397;SDS011;2213;49.720;7.296;2024-03-25T08:29:17;10.53;;;4.63;;
4397;SDS011;2213;49.720;7.296;2024-03-25T08:31:43;15.10;;;4.43;;
4397;SDS011;2213;49.720;7.296;2024-03-25T08:34:10;11.17;;;5.57;;
4397;SDS011;2213;49.720;7.296;2024-03-25T08:36:37;11.43;;;5.10;;
4397;SDS011;2213;49.720;7.296;2024-03-25T08:39:03;9.47;;;5.77;;
4397;SDS011;2213;49.720;7.296;2024-03-25T08:41:31;7.97;;;5.60;;
4397;SDS011;2213;49.720;7.296;2024-03-25T08:43:57;10.00;;;4.73;;
4397;SDS011;2213;49.720;7.296;2024-03-25T08:46:24;9.60;;;4.77;;
4397;SDS011;2213;49.720;7.296;2024-03-25T08:48:51;9.00;;;4.37;;
4397;SDS011;2213;49.720;7.296;2024-03-25T08:51:17;12.17;;;5.30;;
4397;SDS011;2213;49.720;7.296;2024-03-25T08:53:44;9.30;;;5.70;;
4397;SDS011;2213;49.720;7.296;2024-03-25T08:56:10;9.80;;;4.97;;
4397;SDS011;2213;49.720;7.296;2024-03-25T08:58:38;8.17;;;4.80;;
4397;SDS011;2213;49.720;7.296;2024-03-25T09:01:05;20.53;;;5.23;;
4397;SDS011;2213;49.720;7.296;2024-03-25T09:03:31;9.53;;;5.57;;
4397;SDS011;2213;49.720;7.296;2024-03-25T09:05:58;10.30;;;5.10;;
4397;SDS011;2213;49.720;7.296;2024-03-25T09:08:24;9.10;;;5.57;;
4397;SDS011;2213;49.720;7.296;2024-03-25T09:10:51;13.03;;;5.50;;
4397;SDS011;2213;49.720;7.296;2024-03-25T09:13:30;11.10;;;5.03;;
4397;SDS011;2213;49.720;7.296;2024-03-25T09:15:58;10.13;;;5.47;;
4397;SDS011;2213;49.720;7.296;2024-03-25T09:18:25;9.23;;;4.83;;
4397;SDS011;2213;49.720;7.296;2024-03-25T09:20:51;13.83;;;5.10;;
4397;SDS011;2213;49.720;7.296;2024-03-25T09:23:18;11.70;;;5.87;;
4397;SDS011;2213;49.720;7.296;2024-03-25T09:25:51;7.97;;;4.70;;
4397;SDS011;2213;49.720;7.296;2024-03-25T09:28:19;8.30;;;4.70;;
4397;SDS011;2213;49.720;7.296;2024-03-25T09:30:45;14.70;;;5.00;;
4397;SDS011;2213;49.720;7.296;2024-03-25T09:33:15;10.63;;;4.73;;
4397;SDS011;2213;49.720;7.296;2024-03-25T09:35:42;12.40;;;5.10;;
4397;SDS011;2213;49.720;7.296;2024-03-25T09:38:09;12.00;;;4.43;;
4397;SDS011;2213;49.720;7.296;2024-03-25T09:40:35;8.93;;;5.50;;
4397;SDS011;2213;49.720;7.296;2024-03-25T09:43:06;10.07;;;4.53;;
4397;SDS011;2213;49.720;7.296;2024-03-25T09:45:42;6.60;;;3.63;;
4397;SDS011;2213;49.720;7.296;2024-03-25T09:48:16;6.70;;;3.77;;
4397;SDS011;2213;49.720;7.296;2024-03-25T09:50:44;7.13;;;3.83;;
4397;SDS011;2213;49.720;7.296;2024-03-25T09:53:12;12.70;;;3.87;;
4397;SDS011;2213;49.720;7.296;2024-03-25T09:55:39;6.33;;;3.73;;
4397;SDS011;2213;49.720;7.296;2024-03-25T09:58:06;14.53;;;4.90;;
4397;SDS011;2213;49.720;7.296;2024-03-25T10:00:33;10.83;;;4.00;;
4397;SDS011;2213;49.720;7.296;2024-03-25T10:03:00;5.63;;;3.63;;
4397;SDS011;2213;49.720;7.296;2024-03-25T10:05:28;10.30;;;4.57;;
4397;SDS011;2213;49.720;7.296;2024-03-25T10:07:55;6.23;;;3.10;;
4397;SDS011;2213;49.720;7.296;2024-03-25T10:10:21;7.83;;;3.03;;
4397;SDS011;2213;49.720;7.296;2024-03-25T10:12:48;6.73;;;2.90;;
4397;SDS011;2213;49.720;7.296;2024-03-25T10:15:15;4.17;;;2.63;;
4397;SDS011;2213;49.720;7.296;2024-03-25T10:17:42;9.73;;;3.93;;
4397;SDS011;2213;49.720;7.296;2024-03-25T10:20:13;10.20;;;2.50;;
4397;SDS011;2213;49.720;7.296;2024-03-25T10:22:42;7.40;;;3.33;;
4397;SDS011;2213;49.720;7.296;2024-03-25T10:25:18;6.60;;;3.57;;
4397;SDS011;2213;49.720;7.296;2024-03-25T10:27:54;8.80;;;3.40;;
4397;SDS011;2213;49.720;7.296;2024-03-25T10:30:22;6.20;;;3.37;;
4397;SDS011;2213;49.720;7.296;2024-03-25T10:32:58;5.27;;;2.47;;
4397;SDS011;2213;49.720;7.296;2024-03-25T10:35:26;4.80;;;3.00;;
4397;SDS011;2213;49.720;7.296;2024-03-25T10:37:57;5.93;;;3.30;;
4397;SDS011;2213;49.720;7.296;2024-03-25T10:40:27;3.87;;;2.53;;
4397;SDS011;2213;49.720;7.296;2024-03-25T10:42:56;5.93;;;3.23;;
4397;SDS011;2213;49.720;7.296;2024-03-25T10:45:28;9.30;;;3.60;;
4397;SDS011;2213;49.720;7.296;2024-03-25T10:47:59;6.40;;;2.90;;
4397;SDS011;2213;49.720;7.296;2024-03-25T10:50:37;7.80;;;2.80;;
4397;SDS011;2213;49.720;7.296;2024-03-25T10:53:10;5.40;;;3.20;;
4397;SDS011;2213;49.720;7.296;2024-03-25T10:55:37;8.07;;;3.00;;
4397;SDS011;2213;49.720;7.296;2024-03-25T10:58:05;4.40;;;2.77;;
4397;SDS011;2213;49.720;7.296;2024-03-25T11:00:33;5.90;;;2.70;;
4397;SDS011;2213;49.720;7.296;2024-03-25T11:03:01;6.47;;;3.00;;
4397;SDS011;2213;49.720;7.296;2024-03-25T11:05:28;8.77;;;3.00;;
4397;SDS011;2213;49.720;7.296;2024-03-25T11:07:55;5.67;;;2.73;;
4397;SDS011;2213;49.720;7.296;2024-03-25T11:10:29;6.20;;;2.97;;
4397;SDS011;2213;49.720;7.296;2024-03-25T11:12:56;7.33;;;4.30;;
4397;SDS011;2213;49.720;7.296;2024-03-25T11:15:23;7.33;;;3.17;;
4397;SDS011;2213;49.720;7.296;2024-03-25T11:17:49;3.53;;;2.60;;
4397;SDS011;2213;49.720;7.296;2024-03-25T11:20:16;4.33;;;3.07;;
4397;SDS011;2213;49.720;7.296;2024-03-25T11:22:49;8.23;;;4.40;;
4397;SDS011;2213;49.720;7.296;2024-03-25T11:25:17;6.23;;;3.13;;
4397;SDS011;2213;49.720;7.296;2024-03-25T11:27:48;5.90;;;2.57;;
4397;SDS011;2213;49.720;7.296;2024-03-25T11:30:14;5.47;;;2.77;;
4397;SDS011;2213;49.720;7.296;2024-03-25T11:32:45;3.70;;;2.70;;
4397;SDS011;2213;49.720;7.296;2024-03-25T11:35:16;5.97;;;2.70;;
4397;SDS011;2213;49.720;7.296;2024-03-25T11:37:44;2.70;;;2.07;;
4397;SDS011;2213;49.720;7.296;2024-03-25T11:40:11;7.40;;;2.90;;
4397;SDS011;2213;49.720;7.296;2024-03-25T11:42:39;3.53;;;2.23;;
4397;SDS011;2213;49.720;7.296;2024-03-25T11:45:13;5.73;;;2.20;;
4397;SDS011;2213;49.720;7.296;2024-03-25T11:47:41;7.90;;;2.40;;
4397;SDS011;2213;49.720;7.296;2024-03-25T11:50:09;5.17;;;2.27;;
4397;SDS011;2213;49.720;7.296;2024-03-25T11:52:38;4.03;;;1.80;;
4397;SDS011;2213;49.720;7.296;2024-03-25T11:55:05;4.40;;;2.30;;
4397;SDS011;2213;49.720;7.296;2024-03-25T11:57:33;2.77;;;2.00;;
4397;SDS011;2213;49.720;7.296;2024-03-25T12:00:01;6.97;;;2.50;;
4397;SDS011;2213;49.720;7.296;2024-03-25T12:02:30;5.00;;;2.90;;
4397;SDS011;2213;49.720;7.296;2024-03-25T12:04:57;4.00;;;2.63;;
4397;SDS011;2213;49.720;7.296;2024-03-25T12:07:24;3.20;;;2.13;;
4397;SDS011;2213;49.720;7.296;2024-03-25T12:09:50;4.23;;;2.00;;
4397;SDS011;2213;49.720;7.296;2024-03-25T12:12:38;4.80;;;2.30;;
4397;SDS011;2213;49.720;7.296;2024-03-25T12:15:05;4.27;;;2.80;;
4397;SDS011;2213;49.720;7.296;2024-03-25T12:17:34;5.90;;;2.63;;
4397;SDS011;2213;49.720;7.296;2024-03-25T12:20:04;5.07;;;2.40;;
4397;SDS011;2213;49.720;7.296;2024-03-25T12:22:33;4.90;;;2.87;;
4397;SDS011;2213;49.720;7.296;2024-03-25T12:25:00;6.00;;;2.53;;
4397;SDS011;2213;49.720;7.296;2024-03-25T12:27:29;6.93;;;2.87;;
4397;SDS011;2213;49.720;7.296;2024-03-25T12:29:57;5.20;;;2.53;;
4397;SDS011;2213;49.720;7.296;2024-03-25T12:32:32;13.57;;;2.73;;
4397;SDS011;2213;49.720;7.296;2024-03-25T12:35:06;6.13;;;2.50;;
4397;SDS011;2213;49.720;7.296;2024-03-25T12:37:36;3.90;;;2.77;;
4397;SDS011;2213;49.720;7.296;2024-03-25T12:40:04;3.10;;;2.13;;
4397;SDS011;2213;49.720;7.296;2024-03-25T12:42:32;4.23;;;2.67;;
4397;SDS011;2213;49.720;7.296;2024-03-25T12:44:59;2.53;;;1.90;;
4397;SDS011;2213;49.720;7.296;2024-03-25T12:47:25;7.70;;;2.00;;
4397;SDS011;2213;49.720;7.296;2024-03-25T12:49:53;4.47;;;2.33;;
4397;SDS011;2213;49.720;7.296;2024-03-25T12:52:20;5.03;;;2.03;;
4397;SDS011;2213;49.720;7.296;2024-03-25T12:54:46;6.13;;;1.90;;
4397;SDS011;2213;49.720;7.296;2024-03-25T12:57:13;4.57;;;2.37;;
4397;SDS011;2213;49.720;7.296;2024-03-25T12:59:40;2.90;;;1.50;;
4397;SDS011;2213;49.720;7.296;2024-03-25T13:02:06;7.30;;;1.80;;
4397;SDS011;2213;49.720;7.296;2024-03-25T13:04:37;4.40;;;2.43;;
4397;SDS011;2213;49.720;7.296;2024-03-25T13:07:05;3.27;;;1.60;;
4397;SDS011;2213;49.720;7.296;2024-03-25T13:09:32;7.43;;;2.30;;
4397;SDS011;2213;49.720;7.296;2024-03-25T13:11:59;6.30;;;1.90;;
4397;SDS011;2213;49.720;7.296;2024-03-25T13:14:25;5.50;;;2.00;;
4397;SDS011;2213;49.720;7.296;2024-03-25T13:16:52;2.67;;;1.60;;
4397;SDS011;2213;49.720;7.296;2024-03-25T13:19:19;2.73;;;2.00;;
4397;SDS011;2213;49.720;7.296;2024-03-25T13:21:45;4.03;;;1.70;;
4397;SDS011;2213;49.720;7.296;2024-03-25T13:24:13;5.23;;;1.67;;
4397;SDS011;2213;49.720;7.296;2024-03-25T13:26:40;5.63;;;1.87;;
4397;SDS011;2213;49.720;7.296;2024-03-25T13:29:07;2.50;;;1.63;;
4397;SDS011;2213;49.720;7.296;2024-03-25T13:31:33;3.87;;;1.70;;
4397;SDS011;2213;49.720;7.296;2024-03-25T13:34:01;7.13;;;2.57;;
4397;SDS011;2213;49.720;7.296;2024-03-25T13:36:27;3.50;;;1.87;;
4397;SDS011;2213;49.720;7.296;2024-03-25T13:38:54;4.53;;;2.30;;
4397;SDS011;2213;49.720;7.296;2024-03-25T13:41:21;4.43;;;2.10;;
4397;SDS011;2213;49.720;7.296;2024-03-25T13:43:48;6.97;;;1.83;;
4397;SDS011;2213;49.720;7.296;2024-03-25T13:46:15;6.07;;;1.80;;
4397;SDS011;2213;49.720;7.296;2024-03-25T13:48:42;2.63;;;1.67;;
4397;SDS011;2213;49.720;7.296;2024-03-25T13:51:09;4.10;;;1.87;;
4397;SDS011;2213;49.720;7.296;2024-03-25T13:53:36;6.17;;;2.10;;
4397;SDS011;2213;49.720;7.296;2024-03-25T13:56:02;2.57;;;1.70;;
4397;SDS011;2213;49.720;7.296;2024-03-25T13:58:31;3.10;;;1.83;;
4397;SDS011;2213;49.720;7.296;2024-03-25T14:00:57;3.03;;;1.80;;
4397;SDS011;2213;49.720;7.296;2024-03-25T14:03:24;3.23;;;1.80;;
4397;SDS011;2213;49.720;7.296;2024-03-25T14:05:50;5.40;;;1.93;;
4397;SDS011;2213;49.720;7.296;2024-03-25T14:08:20;4.53;;;1.90;;
4397;SDS011;2213;49.720;7.296;2024-03-25T14:10:56;4.37;;;1.70;;
4397;SDS011;2213;49.720;7.296;2024-03-25T14:13:24;3.70;;;2.07;;
4397;SDS011;2213;49.720;7.296;2024-03-25T14:15:52;3.30;;;1.80;;
4397;SDS011;2213;49.720;7.296;2024-03-25T14:18:18;3.33;;;1.63;;
4397;SDS011;2213;49.720;7.296;2024-03-25T14:20:45;4.90;;;1.70;;
4397;SDS011;2213;49.720;7.296;2024-03-25T14:23:12;4.63;;;2.00;;
4397;SDS011;2213;49.720;7.296;2024-03-25T14:25:38;2.40;;;1.57;;
4397;SDS011;2213;49.720;7.296;2024-03-25T14:28:06;4.07;;;1.80;;
4397;SDS011;2213;49.720;7.296;2024-03-25T14:30:33;4.03;;;1.60;;
4397;SDS011;2213;49.720;7.296;2024-03-25T14:33:01;6.47;;;1.70;;
4397;SDS011;2213;49.720;7.296;2024-03-25T14:35:27;4.03;;;1.63;;
4397;SDS011;2213;49.720;7.296;2024-03-25T14:37:54;2.03;;;1.50;;
4397;SDS011;2213;49.720;7.296;2024-03-25T14:40:20;4.63;;;2.00;;
4397;SDS011;2213;49.720;7.296;2024-03-25T14:42:47;3.50;;;1.70;;
4397;SDS011;2213;49.720;7.296;2024-03-25T14:45:13;2.40;;;1.47;;
4397;SDS011;2213;49.720;7.296;2024-03-25T14:47:40;3.30;;;1.40;;
4397;SDS011;2213;49.720;7.296;2024-03-25T14:50:08;2.43;;;1.53;;
4397;SDS011;2213;49.720;7.296;2024-03-25T14:52:35;4.40;;;1.83;;
4397;SDS011;2213;49.720;7.296;2024-03-25T14:55:01;2.73;;;1.43;;
4397;SDS011;2213;49.720;7.296;2024-03-25T14:57:28;2.80;;;1.33;;
4397;SDS011;2213;49.720;7.296;2024-03-25T14:59:54;2.90;;;1.50;;
4397;SDS011;2213;49.720;7.296;2024-03-25T15:02:21;10.90;;;1.40;;
4397;SDS011;2213;49.720;7.296;2024-03-25T15:04:48;3.77;;;1.77;;
4397;SDS011;2213;49.720;7.296;2024-03-25T15:07:16;4.13;;;1.50;;
4397;SDS011;2213;49.720;7.296;2024-03-25T15:09:42;5.50;;;1.77;;
4397;SDS011;2213;49.720;7.296;2024-03-25T15:12:08;4.03;;;1.60;;
4397;SDS011;2213;49.720;7.296;2024-03-25T15:14:35;1.67;;;1.30;;
4397;SDS011;2213;49.720;7.296;2024-03-25T15:17:02;4.50;;;1.50;;